Aviation Digital Data Service (ADDS)

Output produced by METARs form (0617 UTC 22 October 2014)
found at http://www.aviationweather.gov/adds/metars/
 
KCRQ 220601Z 00000KT 9SM BKN011 19/16 A2988 RMK AO2 T01940161
KCRQ 220553Z 00000KT 9SM SCT011 19/16 A2988 RMK AO2 SLP115 T01940161 10206 20189 51005
KCRQ 220550Z 00000KT 9SM SCT011 19/16 A2988 RMK AO2
KCRQ 220453Z 00000KT 10SM OVC012 20/17 A2988 RMK AO2 SLP115 T02000167
KCRQ 220353Z 00000KT 9SM BKN011 19/17 A2986 RMK AO2 SLP110 T01940167
KCRQ 220253Z 00000KT 10SM CLR 20/17 A2986 RMK AO2 SLP108 T02000167 51008
KCRQ 220520Z 2206/2306 VRB04KT 6SM HZ BKN009 
     FM221100 VRB04KT 3SM BR BKN005 
     FM221400 VRB04KT P6SM SKC 
     FM221900 27007KT P6SM SKC 
     FM230100 VRB04KT P6SM SKC